CST,Max TemperatureF,Mean TemperatureF,Min TemperatureF,Max Dew PointF,MeanDew PointF,Min DewpointF,Max Humidity, Mean Humidity, Min Humidity, Max Sea Level PressureIn, Mean Sea Level PressureIn, Min Sea Level PressureIn, Max VisibilityMiles, Mean VisibilityMiles, Min VisibilityMiles, Max Wind SpeedMPH, Mean Wind SpeedMPH, Max Gust SpeedMPH,PrecipitationIn, CloudCover, Events, WindDirDegrees
2012-11-1,46,37,28,34,26,19,81,61,39,30.05,30.01,29.96,10,10,5,20,12,25,0.00,3,,349
2012-11-2,41,34,28,25,22,19,74,62,49,30.14,30.06,30.01,10,10,10,14,9,,0.00,3,,75
2012-11-3,46,35,24,34,26,19,81,64,49,30.21,30.17,30.13,10,10,9,9,4,,0.00,6,,269
2012-11-4,44,40,35,36,34,32,87,80,66,30.18,30.13,30.08,10,5,0,10,6,,0.03,8,,24
2012-11-5,37,36,35,34,32,30,87,81,75,30.17,30.09,29.91,10,4,0,20,9,24,0.01,8,,311
2012-11-6,44,40,37,34,31,28,81,67,57,30.04,29.92,29.83,10,10,7,29,18,33,0.00,7,,295
2012-11-7,46,38,30,30,28,25,80,65,46,30.13,30.06,29.97,10,10,10,17,9,21,0.00,1,,228
2012-11-8,55,45,35,34,30,27,81,63,41,29.98,29.92,29.86,10,9,3,21,15,29,0.00,0,,179
2012-11-9,53,44,35,39,35,30,87,74,54,29.97,29.88,29.75,10,6,0,18,13,21,0.00,7,,59
2012-11-10,62,52,39,50,42,34,87,72,48,29.74,29.56,29.46,10,8,3,26,15,33,0.39,4,Thunderstorm,183
2012-11-11,39,28,17,32,15,7,80,65,51,30.00,29.84,29.62,10,10,5,28,21,32,0.00,4,,286
2012-11-12,28,22,17,12,10,9,73,61,47,30.29,30.11,29.98,10,10,9,26,17,33,0.00,2,,267
2012-11-13,46,32,19,25,18,10,74,57,32,30.30,30.26,30.22,10,10,10,17,8,23,0.00,1,,191
2012-11-14,51,40,28,28,25,21,75,57,38,30.25,30.20,30.12,10,10,10,15,6,,0.00,2,,208
2012-11-15,46,34,21,28,23,12,75,60,42,30.45,30.29,30.10,10,9,1,17,12,21,0.00,0,,315
2012-11-16,46,30,15,27,18,9,79,58,32,30.46,30.36,30.25,10,10,8,18,7,24,0.00,0,,166
2012-11-17,57,46,35,32,29,27,75,54,38,30.25,30.17,30.11,10,10,10,26,17,34,0.00,0,,174
2012-11-18,57,47,37,32,29,25,61,49,38,30.10,30.05,30.01,10,10,10,22,17,30,0.00,0,,176
2012-11-19,55,45,33,36,32,28,81,61,47,30.13,30.03,29.98,10,10,7,17,11,,0.00,0,,233
2012-11-20,59,42,24,34,26,19,86,57,27,30.19,30.12,30.01,10,9,4,18,9,23,0.00,0,,216
2012-11-21,68,56,44,39,34,30,62,48,30,30.01,29.87,29.70,10,10,10,26,18,32,0.00,0,,199
2012-11-22,55,42,28,39,30,16,71,59,47,30.14,29.85,29.64,10,10,10,36,21,47,0.00,3,,278
2012-11-23,26,18,10,14,8,3,79,60,47,30.40,30.33,30.16,10,10,10,31,22,40,0.00,4,,316
2012-11-24,37,24,10,18,11,3,79,57,38,30.33,30.03,29.80,10,10,10,22,8,29,0.00,3,,189
2012-11-25,33,28,24,23,19,16,75,65,52,30.17,29.99,29.84,10,10,9,21,11,25,0.00,3,,325
2012-11-26,24,18,12,16,5,1,69,57,43,30.42,30.33,30.18,10,10,9,17,10,22,0.00,2,,315
2012-11-27,37,26,15,21,14,5,80,64,48,30.32,30.19,30.08,10,10,10,21,13,30,0.00,0,,243
2012-11-28,42,27,12,23,17,7,86,65,42,30.32,30.20,30.02,10,9,2,20,7,24,0.00,0,,192
2012-11-29,44,30,17,25,20,10,80,63,46,30.03,29.99,29.94,10,10,6,14,6,,0.00,1,,46
2012-11-30,41,31,21,28,23,16,81,73,61,30.12,30.03,29.96,10,6,3,17,9,22,0.00,0,,67